createdAt,value
2022-09-23T00:00:48.067Z,100791.25
2022-09-23T00:03:34.277Z,100782.72
2022-09-23T00:06:03.661Z,100775.31
2022-09-23T00:08:31.392Z,100771.41
2022-09-23T00:11:04.794Z,100779.09
2022-09-23T00:13:32.989Z,100775.50
2022-09-23T00:16:02.876Z,100772.41
2022-09-23T00:18:30.036Z,100780.09
2022-09-23T00:21:02.863Z,100775.44
2022-09-23T00:23:30.157Z,100770.94
2022-09-23T00:25:58.187Z,100768.03
2022-09-23T00:28:26.228Z,100771.97
2022-09-23T00:30:53.789Z,100766.97
2022-09-23T00:33:21.357Z,100761.44
2022-09-23T00:35:49.362Z,100760.34
2022-09-23T00:38:18.207Z,100762.59
2022-09-23T00:40:46.258Z,100762.38
2022-09-23T00:43:14.886Z,100765.66
2022-09-23T00:45:46.856Z,100759.00
2022-09-23T00:48:18.152Z,100761.19
2022-09-23T00:50:49.706Z,100756.69
2022-09-23T00:53:22.783Z,100749.78
2022-09-23T00:55:53.221Z,100752.56
2022-09-23T00:58:25.377Z,100750.38
2022-09-23T01:00:53.180Z,100750.59
2022-09-23T01:03:21.252Z,100751.63
2022-09-23T01:05:49.767Z,100738.88
2022-09-23T01:08:19.385Z,100750.16
2022-09-23T01:10:59.229Z,100742.63
2022-09-23T01:13:35.937Z,100740.94
2022-09-23T01:16:08.612Z,100743.84
2022-09-23T01:18:46.473Z,100737.81
2022-09-23T01:21:23.178Z,100737.59
2022-09-23T01:24:13.133Z,100738.09
2022-09-23T01:26:58.554Z,100734.97
2022-09-23T01:30:18.120Z,100736.03
2022-09-23T01:33:05.340Z,100731.47
2022-09-23T01:35:46.513Z,100732.16
2022-09-23T01:38:27.041Z,100729.84
2022-09-23T01:41:02.876Z,100724.03
2022-09-23T01:43:37.956Z,100723.91
2022-09-23T01:46:11.317Z,100721.13
2022-09-23T01:48:45.412Z,100724.41
2022-09-23T01:51:16.434Z,100716.53
2022-09-23T01:53:49.391Z,100720.41
2022-09-23T01:56:22.473Z,100724.06
2022-09-23T01:58:52.182Z,100723.69
2022-09-23T02:01:27.402Z,100723.09
2022-09-23T02:04:01.484Z,100719.97
2022-09-23T02:06:33.734Z,100718.50
2022-09-23T02:09:05.361Z,100717.38
2022-09-23T02:11:35.020Z,100719.97
2022-09-23T02:14:09.417Z,100719.47
2022-09-23T02:16:43.470Z,100723.69
2022-09-23T02:19:18.748Z,100721.25
2022-09-23T02:21:53.015Z,100710.59
2022-09-23T02:24:23.040Z,100715.69
2022-09-23T02:26:54.693Z,100712.41
2022-09-23T02:29:28.755Z,100716.06
2022-09-23T02:32:00.008Z,100713.28
2022-09-23T02:34:43.145Z,100711.22
2022-09-23T02:37:21.076Z,100708.22
2022-09-23T02:39:56.474Z,100707.94
2022-09-23T02:42:32.829Z,100706.84
2022-09-23T02:45:00.324Z,100700.78
2022-09-23T02:47:32.546Z,100707.09
2022-09-23T02:50:01.680Z,100702.88
2022-09-23T02:52:29.653Z,100703.25
2022-09-23T02:54:57.536Z,100699.13
2022-09-23T02:57:24.973Z,100700.06
2022-09-23T02:59:52.789Z,100699.84
2022-09-23T03:02:40.025Z,100696.34
2022-09-23T03:05:19.116Z,100692.97
2022-09-23T03:07:55.886Z,100705.94
2022-09-23T03:10:30.045Z,100694.66
2022-09-23T03:13:06.681Z,100694.19
2022-09-23T03:15:38.906Z,100695.28
2022-09-23T03:18:15.003Z,100694.31
2022-09-23T03:20:48.765Z,100692.81
2022-09-23T03:23:19.956Z,100692.34
2022-09-23T03:25:50.403Z,100690.28
2022-09-23T03:28:18.965Z,100696.13
2022-09-23T03:30:46.598Z,100693.44
2022-09-23T03:33:17.827Z,100691.63
2022-09-23T03:35:53.174Z,100691.00
2022-09-23T03:38:26.074Z,100690.50
2022-09-23T03:40:58.239Z,100686.88
2022-09-23T03:43:26.526Z,100690.16
2022-09-23T03:45:54.629Z,100686.31
2022-09-23T03:48:22.122Z,100687.03
2022-09-23T03:50:51.571Z,100688.69
2022-09-23T03:53:18.954Z,100682.50
2022-09-23T03:55:46.305Z,100681.78
2022-09-23T03:58:14.045Z,100673.31
2022-09-23T04:00:41.423Z,100675.97
2022-09-23T04:03:11.730Z,100672.44
2022-09-23T04:05:39.620Z,100673.09
2022-09-23T04:08:08.899Z,100667.47
2022-09-23T04:10:36.185Z,100672.06
2022-09-23T04:13:04.004Z,100678.97
2022-09-23T04:15:31.296Z,100666.38
2022-09-23T04:17:58.564Z,100666.91
2022-09-23T04:20:26.479Z,100668.63
2022-09-23T04:22:53.775Z,100669.72
2022-09-23T04:25:22.651Z,100669.81
2022-09-23T04:27:50.334Z,100671.75
2022-09-23T04:30:17.770Z,100674.38
2022-09-23T04:32:45.069Z,100677.06
2022-09-23T04:35:12.902Z,100670.56
2022-09-23T04:37:40.117Z,100673.00
2022-09-23T04:40:09.430Z,100670.66
2022-09-23T04:42:39.004Z,100672.94
2022-09-23T04:45:08.024Z,100673.09
2022-09-23T04:47:35.285Z,100673.31
2022-09-23T04:50:03.297Z,100669.03
2022-09-23T04:52:31.076Z,100667.66
2022-09-23T04:54:58.511Z,100666.19
2022-09-23T04:57:26.144Z,100670.75
2022-09-23T04:59:55.196Z,100666.25
2022-09-23T05:02:22.816Z,100663.63
2022-09-23T05:04:50.539Z,100666.19
2022-09-23T05:07:18.053Z,100676.38
2022-09-23T05:09:45.548Z,100666.31
2022-09-23T05:12:13.303Z,100671.84
2022-09-23T05:14:40.720Z,100674.56
2022-09-23T05:17:09.606Z,100674.63
2022-09-23T05:19:37.527Z,100668.03
2022-09-23T05:22:04.914Z,100668.41
2022-09-23T05:24:32.236Z,100676.59
2022-09-23T05:26:59.760Z,100676.44
2022-09-23T05:29:27.048Z,100674.72
2022-09-23T05:31:54.384Z,100683.81
2022-09-23T05:34:29.584Z,100676.25
2022-09-23T05:36:57.083Z,100676.31
2022-09-23T05:39:24.870Z,100683.06
2022-09-23T05:41:52.260Z,100685.19
2022-09-23T05:44:20.267Z,100686.59
2022-09-23T05:46:48.082Z,100681.41
2022-09-23T05:49:15.989Z,100683.06
2022-09-23T05:51:44.717Z,100685.53
2022-09-23T05:54:12.569Z,100683.78
2022-09-23T05:56:39.901Z,100681.22
2022-09-23T05:59:07.372Z,100678.84
2022-09-23T06:01:35.884Z,100677.34
2022-09-23T06:04:05.473Z,100677.97
2022-09-23T06:06:36.270Z,100679.28
2022-09-23T06:09:06.642Z,100673.63
2022-09-23T06:11:35.805Z,100673.19
2022-09-23T06:14:04.123Z,100682.13
2022-09-23T06:16:34.498Z,100677.19
2022-09-23T06:19:05.397Z,100676.25
2022-09-23T06:21:36.407Z,100681.28
2022-09-23T06:24:06.770Z,100677.09
2022-09-23T06:26:34.868Z,100679.72
2022-09-23T06:29:03.694Z,100677.81
2022-09-23T06:31:31.138Z,100680.41
2022-09-23T06:34:12.806Z,100682.25
2022-09-23T06:36:44.984Z,100681.13
2022-09-23T06:39:15.405Z,100677.31
2022-09-23T06:41:48.998Z,100679.78
2022-09-23T06:44:24.223Z,100684.31
2022-09-23T06:46:59.801Z,100687.06
2022-09-23T06:49:27.485Z,100694.69
2022-09-23T06:51:54.806Z,100699.22
2022-09-23T06:54:23.668Z,100687.31
2022-09-23T06:56:51.385Z,100685.69
2022-09-23T06:59:18.783Z,100691.19
2022-09-23T07:01:46.545Z,100692.25
2022-09-23T07:04:14.606Z,100697.06
2022-09-23T07:06:41.941Z,100698.41
2022-09-23T07:09:09.533Z,100703.78
2022-09-23T07:11:39.140Z,100702.13
2022-09-23T07:14:07.269Z,100697.72
2022-09-23T07:16:34.971Z,100695.81
2022-09-23T07:19:03.228Z,100701.50
2022-09-23T07:21:30.909Z,100696.94
2022-09-23T07:23:58.377Z,100695.94
2022-09-23T07:26:26.988Z,100697.13
2022-09-23T07:28:56.945Z,100695.69
2022-09-23T07:31:37.965Z,100694.34
2022-09-23T07:34:08.789Z,100692.44
2022-09-23T07:36:36.078Z,100690.69
2022-09-23T07:39:03.612Z,100684.66
2022-09-23T07:41:33.037Z,100691.66
2022-09-23T07:44:02.173Z,100685.19
2022-09-23T07:46:32.118Z,100690.25
2022-09-23T07:49:00.016Z,100685.41
2022-09-23T07:51:34.777Z,100688.56
2022-09-23T07:54:05.200Z,100685.47
2022-09-23T07:56:32.828Z,100683.59
2022-09-23T07:59:01.575Z,100688.81
2022-09-23T08:01:31.801Z,100679.94
2022-09-23T08:04:00.849Z,100679.78
2022-09-23T08:06:28.253Z,100668.59
2022-09-23T08:08:58.152Z,100671.81
2022-09-23T08:11:26.492Z,100663.59
2022-09-23T08:13:53.909Z,100669.56
2022-09-23T08:16:23.105Z,100658.25
2022-09-23T08:18:50.614Z,100659.00
2022-09-23T08:21:19.862Z,100660.97
2022-09-23T08:23:47.891Z,100659.69
2022-09-23T08:26:20.993Z,100659.66
2022-09-23T08:28:50.459Z,100662.22
2022-09-23T08:31:17.795Z,100660.28
2022-09-23T08:33:46.883Z,100670.44
2022-09-23T08:36:14.548Z,100667.91
2022-09-23T08:38:42.292Z,100666.56
2022-09-23T08:41:17.226Z,100669.78
2022-09-23T08:43:48.791Z,100659.81
2022-09-23T08:46:22.316Z,100668.53
2022-09-23T08:48:52.755Z,100654.25
2022-09-23T08:51:25.695Z,100645.59
2022-09-23T08:53:53.415Z,100649.44
2022-09-23T08:56:23.487Z,100656.56
2022-09-23T08:59:04.738Z,100645.56
2022-09-23T09:01:41.667Z,100651.41
2022-09-23T09:04:20.521Z,100646.50
2022-09-23T09:06:54.293Z,100649.66
2022-09-23T09:09:27.078Z,100651.09
2022-09-23T09:12:01.530Z,100651.28
2022-09-23T09:14:36.443Z,100648.13
2022-09-23T09:17:07.385Z,100647.50
2022-09-23T09:19:54.186Z,100649.28
2022-09-23T09:22:33.263Z,100641.78
2022-09-23T09:25:10.465Z,100651.03
2022-09-23T09:27:40.913Z,100653.66
2022-09-23T09:30:12.789Z,100650.16
2022-09-23T09:32:48.128Z,100649.94
2022-09-23T09:35:28.558Z,100655.28
2022-09-23T09:37:56.253Z,100650.50
2022-09-23T09:40:24.102Z,100640.06
2022-09-23T09:42:51.799Z,100651.56
2022-09-23T09:45:29.841Z,100641.91
2022-09-23T09:48:06.592Z,100649.88
2022-09-23T09:50:49.589Z,100648.81
2022-09-23T09:53:21.626Z,100639.41
2022-09-23T09:56:04.379Z,100633.34
2022-09-23T09:58:43.403Z,100634.16
2022-09-23T10:01:22.749Z,100635.84
2022-09-23T10:03:54.311Z,100627.69
2022-09-23T10:06:28.624Z,100623.28
2022-09-23T10:09:17.220Z,100629.50
2022-09-23T10:12:04.099Z,100620.91
2022-09-23T10:14:31.407Z,100619.38
2022-09-23T10:17:04.172Z,100618.34
2022-09-23T10:19:32.742Z,100618.66
2022-09-23T10:22:05.034Z,100612.22
2022-09-23T10:24:34.915Z,100611.88
2022-09-23T10:27:04.901Z,100599.53
2022-09-23T10:29:34.068Z,100604.59
2022-09-23T10:32:20.811Z,100602.78
2022-09-23T10:34:52.347Z,100597.44
2022-09-23T10:37:32.918Z,100586.53
2022-09-23T10:40:12.080Z,100585.81
2022-09-23T10:42:56.611Z,100585.78
2022-09-23T10:45:28.342Z,100581.38
2022-09-23T10:48:03.337Z,100575.44
2022-09-23T10:50:41.939Z,100578.09
2022-09-23T10:53:16.527Z,100572.06
2022-09-23T10:56:04.441Z,100562.94
2022-09-23T10:59:13.496Z,100565.66
2022-09-23T11:01:49.913Z,100567.94
2022-09-23T11:04:38.809Z,100561.59
2022-09-23T11:07:21.273Z,100567.47
2022-09-23T11:10:23.183Z,100562.94
2022-09-23T11:13:07.477Z,100559.91
2022-09-23T11:15:44.778Z,100545.81
2022-09-23T11:18:48.918Z,100549.59
2022-09-23T11:21:50.145Z,100537.94
2022-09-23T11:24:54.344Z,100536.81
2022-09-23T11:27:40.597Z,100534.69
2022-09-23T11:30:11.296Z,100530.66
2022-09-23T11:32:58.042Z,100532.47
2022-09-23T11:35:29.545Z,100522.41
2022-09-23T11:38:05.173Z,100521.03
2022-09-23T11:40:35.610Z,100523.88
2022-09-23T11:43:14.924Z,100517.09
2022-09-23T11:45:47.217Z,100511.75
2022-09-23T11:48:18.921Z,100506.66
2022-09-23T11:50:55.093Z,100504.06
2022-09-23T11:53:29.392Z,100503.88
2022-09-23T11:56:03.482Z,100511.34
2022-09-23T12:01:13.006Z,100497.34
2022-09-23T12:03:48.718Z,100500.84
2022-09-23T12:06:21.483Z,100497.16
2022-09-23T12:08:54.096Z,100498.00
2022-09-23T12:11:30.125Z,100492.16
2022-09-23T12:14:09.938Z,100486.81
2022-09-23T12:16:57.993Z,100485.84
2022-09-23T12:19:57.264Z,100484.44
2022-09-23T12:22:43.377Z,100483.69
2022-09-23T12:25:32.486Z,100479.81
2022-09-23T12:28:05.308Z,100476.16
2022-09-23T12:30:38.183Z,100481.88
2022-09-23T12:33:16.603Z,100475.56
2022-09-23T12:35:45.911Z,100481.59
2022-09-23T12:38:19.155Z,100477.78
2022-09-23T12:40:47.556Z,100473.84
2022-09-23T12:43:20.203Z,100464.75
2022-09-23T12:45:49.954Z,100462.34
2022-09-23T12:48:47.118Z,100456.53
2022-09-23T12:51:20.081Z,100462.94
2022-09-23T12:53:56.085Z,100447.31
2022-09-23T12:56:29.159Z,100453.56
2022-09-23T12:59:20.563Z,100450.22
2022-09-23T13:01:49.816Z,100448.66
2022-09-23T13:04:35.821Z,100438.34
2022-09-23T13:07:08.461Z,100440.41
2022-09-23T13:09:41.452Z,100430.94
2022-09-23T13:12:16.685Z,100430.41
2022-09-23T13:14:47.251Z,100420.31
2022-09-23T13:17:29.418Z,100415.53
2022-09-23T13:20:05.985Z,100405.81
2022-09-23T13:23:04.039Z,100403.06
2022-09-23T13:25:34.883Z,100404.66
2022-09-23T13:28:03.709Z,100394.38
2022-09-23T13:30:31.054Z,100395.16
2022-09-23T13:33:10.648Z,100395.38
2022-09-23T13:35:42.119Z,100399.34
2022-09-23T13:38:10.218Z,100391.56
2022-09-23T13:40:39.194Z,100383.97
2022-09-23T13:43:13.956Z,100380.25
2022-09-23T13:45:42.071Z,100381.78
2022-09-23T13:48:13.753Z,100377.78
2022-09-23T13:50:47.090Z,100371.84
2022-09-23T13:53:22.021Z,100367.88
2022-09-23T13:56:01.887Z,100377.78
2022-09-23T13:58:31.038Z,100369.81
2022-09-23T14:00:59.342Z,100363.97
2022-09-23T14:03:35.897Z,100364.06
2022-09-23T14:06:09.192Z,100360.66
2022-09-23T14:08:39.203Z,100358.53
2022-09-23T14:11:06.963Z,100357.97
2022-09-23T14:13:43.279Z,100358.84
2022-09-23T14:16:13.209Z,100365.84
2022-09-23T14:18:45.623Z,100362.91
2022-09-23T14:21:31.405Z,100366.00
2022-09-23T14:24:12.257Z,100359.13
2022-09-23T14:26:40.973Z,100352.97
2022-09-23T14:29:15.382Z,100343.22
2022-09-23T14:31:46.761Z,100340.78
2022-09-23T14:34:44.909Z,100341.84
2022-09-23T14:37:23.623Z,100329.56
2022-09-23T14:39:54.567Z,100323.00
2022-09-23T14:42:25.382Z,100318.19
2022-09-23T14:44:52.820Z,100319.41
2022-09-23T14:47:20.235Z,100314.91
2022-09-23T14:49:50.522Z,100313.13
2022-09-23T14:52:18.097Z,100314.81
2022-09-23T14:54:46.864Z,100315.19
2022-09-23T14:57:29.821Z,100321.19
2022-09-23T15:00:00.541Z,100316.78
2022-09-23T15:02:30.545Z,100318.91
2022-09-23T15:05:14.165Z,100307.81
2022-09-23T15:07:43.365Z,100307.59
2022-09-23T15:10:18.012Z,100306.44
2022-09-23T15:12:47.163Z,100307.50
2022-09-23T15:15:16.061Z,100317.41
2022-09-23T15:17:43.975Z,100307.44
2022-09-23T15:20:23.203Z,100304.13
2022-09-23T15:22:52.676Z,100297.13
2022-09-23T15:25:22.199Z,100305.22
2022-09-23T15:27:58.117Z,100299.59
2022-09-23T15:30:26.362Z,100304.00
2022-09-23T15:32:53.756Z,100294.91
2022-09-23T15:35:24.769Z,100293.44
2022-09-23T15:37:55.350Z,100289.03
2022-09-23T15:40:25.432Z,100299.22
2022-09-23T15:42:55.974Z,100295.84
2022-09-23T15:45:29.713Z,100296.03
2022-09-23T15:48:01.599Z,100283.19
2022-09-23T15:50:30.348Z,100290.09
2022-09-23T15:52:58.056Z,100292.00
2022-09-23T15:55:25.852Z,100291.84
2022-09-23T15:57:53.258Z,100297.78
2022-09-23T16:03:05.864Z,100289.22
2022-09-23T16:05:38.580Z,100292.44
2022-09-23T16:08:09.252Z,100302.44
2022-09-23T16:10:38.325Z,100291.44
2022-09-23T16:13:10.347Z,100293.72
2022-09-23T16:15:38.345Z,100283.28
2022-09-23T16:18:06.410Z,100284.91
2022-09-23T16:20:38.252Z,100291.59
2022-09-23T16:23:07.048Z,100287.84
2022-09-23T16:25:35.222Z,100293.31
2022-09-23T16:28:04.122Z,100286.66
2022-09-23T16:30:34.037Z,100282.91
2022-09-23T16:33:01.546Z,100282.06
2022-09-23T16:35:31.586Z,100287.03
2022-09-23T16:38:00.909Z,100287.91
2022-09-23T16:40:28.342Z,100289.16
2022-09-23T16:42:56.096Z,100286.47
2022-09-23T16:45:23.534Z,100285.81
2022-09-23T16:47:52.459Z,100291.47
2022-09-23T16:50:23.208Z,100286.03
2022-09-23T16:52:51.656Z,100288.06
2022-09-23T16:55:20.829Z,100287.22
2022-09-23T16:57:48.118Z,100280.31
2022-09-23T17:00:16.290Z,100285.50
2022-09-23T17:02:44.066Z,100284.00
2022-09-23T17:05:11.501Z,100286.00
2022-09-23T17:07:38.780Z,100285.59
2022-09-23T17:10:07.602Z,100286.84
2022-09-23T17:12:36.987Z,100289.97
2022-09-23T17:15:08.180Z,100282.59
2022-09-23T17:17:36.807Z,100282.59
2022-09-23T17:20:06.300Z,100285.00
2022-09-23T17:22:34.234Z,100289.31
2022-09-23T17:25:02.079Z,100288.69
2022-09-23T17:27:29.603Z,100286.59
2022-09-23T17:29:58.625Z,100276.13
2022-09-23T17:32:26.522Z,100281.78
2022-09-23T17:34:53.997Z,100277.69
2022-09-23T17:37:21.292Z,100284.66
2022-09-23T17:39:49.412Z,100274.16
2022-09-23T17:42:16.660Z,100275.78
2022-09-23T17:44:44.039Z,100278.19
2022-09-23T17:47:13.026Z,100273.09
2022-09-23T17:49:40.295Z,100270.53
2022-09-23T17:52:07.565Z,100277.75
2022-09-23T17:54:35.211Z,100281.44
2022-09-23T17:57:03.306Z,100279.59
2022-09-23T17:59:30.704Z,100273.25
2022-09-23T18:01:58.512Z,100276.41
2022-09-23T18:04:27.753Z,100272.03
2022-09-23T18:06:55.439Z,100278.13
2022-09-23T18:09:23.484Z,100279.38
2022-09-23T18:11:50.809Z,100282.81
2022-09-23T18:14:20.769Z,100281.28
2022-09-23T18:16:50.602Z,100276.63
2022-09-23T18:19:19.731Z,100277.72
2022-09-23T18:21:50.410Z,100285.63
2022-09-23T18:24:31.863Z,100280.16
2022-09-23T18:27:00.587Z,100281.94
2022-09-23T18:29:28.366Z,100284.47
2022-09-23T18:31:56.014Z,100283.41
2022-09-23T18:34:23.800Z,100275.00
2022-09-23T18:36:52.855Z,100276.72
2022-09-23T18:39:20.350Z,100269.59
2022-09-23T18:41:47.831Z,100272.41
2022-09-23T18:44:16.240Z,100269.97
2022-09-23T18:46:43.720Z,100270.88
2022-09-23T18:49:11.045Z,100269.03
2022-09-23T18:51:47.907Z,100270.94
2022-09-23T18:54:17.358Z,100262.97
2022-09-23T18:56:45.512Z,100250.16
2022-09-23T18:59:14.392Z,100251.47
2022-09-23T19:01:42.354Z,100261.09
2022-09-23T19:04:10.259Z,100261.72
2022-09-23T19:06:37.658Z,100248.09
2022-09-23T19:09:06.177Z,100264.97
2022-09-23T19:11:35.509Z,100259.94
2022-09-23T19:14:04.924Z,100258.75
2022-09-23T19:16:32.995Z,100253.06
2022-09-23T19:19:05.126Z,100259.97
2022-09-23T19:21:36.888Z,100261.00
2022-09-23T19:24:07.329Z,100257.13
2022-09-23T19:26:37.915Z,100251.44
2022-09-23T19:29:08.577Z,100257.00
2022-09-23T19:31:38.989Z,100254.44
2022-09-23T19:34:11.840Z,100257.50
2022-09-23T19:36:40.599Z,100247.94
2022-09-23T19:39:12.072Z,100249.78
2022-09-23T19:41:40.797Z,100248.09
2022-09-23T19:44:08.243Z,100246.25
2022-09-23T19:46:38.133Z,100252.78
2022-09-23T19:49:06.984Z,100252.78
2022-09-23T19:54:20.084Z,100260.13
2022-09-23T19:56:49.362Z,100257.22
2022-09-23T19:59:18.979Z,100256.25
2022-09-23T20:01:47.329Z,100255.38
2022-09-23T20:04:14.931Z,100256.56
2022-09-23T20:06:42.227Z,100254.19
2022-09-23T20:09:09.908Z,100254.72
2022-09-23T20:11:37.343Z,100255.22
2022-09-23T20:14:06.355Z,100244.31
2022-09-23T20:16:37.652Z,100250.31
2022-09-23T20:19:05.428Z,100242.75
2022-09-23T20:21:33.996Z,100240.94
2022-09-23T20:24:03.318Z,100243.41
2022-09-23T20:26:30.661Z,100244.38
2022-09-23T20:28:58.351Z,100246.22
2022-09-23T20:31:28.002Z,100241.16
2022-09-23T20:33:57.902Z,100237.28
2022-09-23T20:36:25.944Z,100238.31
2022-09-23T20:38:54.316Z,100236.06
2022-09-23T20:41:22.023Z,100230.78
2022-09-23T20:43:52.756Z,100234.41
2022-09-23T20:46:20.542Z,100238.13
2022-09-23T20:48:49.689Z,100234.88
2022-09-23T20:51:17.484Z,100232.56
2022-09-23T20:53:45.137Z,100235.28
2022-09-23T20:56:12.466Z,100229.88
2022-09-23T20:58:39.888Z,100235.34
2022-09-23T21:01:09.031Z,100233.91
2022-09-23T21:03:37.568Z,100231.66
2022-09-23T21:06:08.091Z,100233.25
2022-09-23T21:08:37.404Z,100229.00
2022-09-23T21:11:06.760Z,100224.94
2022-09-23T21:13:34.857Z,100227.41
2022-09-23T21:16:03.316Z,100223.22
2022-09-23T21:18:31.018Z,100237.97
2022-09-23T21:20:59.805Z,100233.44
2022-09-23T21:23:31.085Z,100233.81
2022-09-23T21:26:01.771Z,100234.41
2022-09-23T21:28:33.749Z,100229.03
2022-09-23T21:31:01.488Z,100227.81
2022-09-23T21:33:29.574Z,100228.22
2022-09-23T21:35:59.258Z,100222.19
2022-09-23T21:38:27.836Z,100222.03
2022-09-23T21:40:58.932Z,100220.25
2022-09-23T21:43:28.884Z,100218.50
2022-09-23T21:45:57.473Z,100214.97
2022-09-23T21:48:25.466Z,100217.56
2022-09-23T21:51:00.413Z,100214.97
2022-09-23T21:53:30.784Z,100211.97
2022-09-23T21:56:03.525Z,100220.38
2022-09-23T21:58:31.147Z,100210.63
2022-09-23T22:00:59.158Z,100207.72
2022-09-23T22:03:27.024Z,100207.94
2022-09-23T22:06:06.390Z,100213.34
2022-09-23T22:08:37.378Z,100205.25
2022-09-23T22:11:06.689Z,100209.03
2022-09-23T22:13:34.416Z,100212.59
2022-09-23T22:16:03.655Z,100210.91
2022-09-23T22:18:31.081Z,100216.19
2022-09-23T22:20:58.331Z,100217.56
2022-09-23T22:23:26.136Z,100214.38
2022-09-23T22:26:03.060Z,100202.34
2022-09-23T22:28:32.663Z,100204.78
2022-09-23T22:30:59.984Z,100205.72
2022-09-23T22:33:27.272Z,100205.28
2022-09-23T22:36:01.848Z,100208.34
2022-09-23T22:38:29.137Z,100204.72
2022-09-23T22:40:58.278Z,100201.25
2022-09-23T22:43:25.823Z,100210.59
2022-09-23T22:45:53.071Z,100201.13
2022-09-23T22:48:20.684Z,100196.41
2022-09-23T22:50:48.171Z,100202.72
2022-09-23T22:53:15.534Z,100192.84
2022-09-23T22:55:43.129Z,100191.53
2022-09-23T22:58:31.329Z,100197.72
2022-09-23T23:00:59.446Z,100183.53
2022-09-23T23:03:26.919Z,100188.72
2022-09-23T23:05:54.247Z,100191.59
2022-09-23T23:08:22.060Z,100192.72
2022-09-23T23:10:49.497Z,100195.72
2022-09-23T23:13:18.304Z,100187.88
2022-09-23T23:15:45.887Z,100189.69
2022-09-23T23:18:13.419Z,100188.25
2022-09-23T23:20:40.906Z,100187.88
2022-09-23T23:23:08.568Z,100185.03
2022-09-23T23:25:35.895Z,100184.56
2022-09-23T23:28:03.620Z,100185.66
2022-09-23T23:30:33.198Z,100197.19
2022-09-23T23:33:00.555Z,100186.09
2022-09-23T23:35:27.897Z,100182.09
2022-09-23T23:37:56.014Z,100183.03
2022-09-23T23:40:23.265Z,100177.75
2022-09-23T23:42:50.479Z,100176.81
2022-09-23T23:45:18.469Z,100178.63
2022-09-23T23:47:47.071Z,100170.59
2022-09-23T23:50:14.509Z,100172.81
2022-09-23T23:52:42.316Z,100168.03
2022-09-23T23:55:09.836Z,100158.13
2022-09-23T23:57:37.089Z,100161.44
